Time;durP1;ratioP1;P1;durP2;ratioP2;P2;SDS_P1;SDS_P2;PMS_P1;PMS_P2;Temp;Humidity;BMP_temperature;BMP_pressure;BME280_temperature;BME280_humidity;BME280_pressure;Samples;Min_cycle;Max_cycle;Signal;HPM_P1;HPM_P2
2021/12/31 00:01:37;;;;;;;20.90;9.40;;;;;;;2.05;79.36;98887.80;102915;1320;111847;-71
2021/12/31 00:04:05;;;;;;;20.10;8.30;;;;;;;2.05;79.74;98884.31;102896;1322;99381;-70
2021/12/31 00:06:34;;;;;;;19.30;8.20;;;;;;;2.05;79.81;98884.30;102961;1321;106403;-72
2021/12/31 00:09:04;;;;;;;20.40;8.10;;;;;;;2.06;80.07;98883.22;102957;1322;99568;-73
2021/12/31 00:11:34;;;;;;;17.70;7.80;;;;;;;2.06;79.99;98885.83;102970;1317;99330;-72
2021/12/31 00:14:03;;;;;;;19.30;7.70;;;;;;;2.08;79.80;98891.20;103009;1320;112856;-72
2021/12/31 00:16:31;;;;;;;20.20;7.50;;;;;;;2.11;79.87;98895.27;102916;1322;99347;-72
2021/12/31 00:18:59;;;;;;;18.00;7.00;;;;;;;2.13;79.78;98892.06;102896;1320;105599;-73
2021/12/31 00:21:32;;;;;;;18.40;7.40;;;;;;;2.13;80.17;98890.84;102880;1319;96876;-72
2021/12/31 00:24:02;;;;;;;17.30;7.50;;;;;;;2.13;79.67;98890.27;102942;1322;99279;-72
2021/12/31 00:26:34;;;;;;;15.90;7.10;;;;;;;2.15;79.90;98892.66;102925;1317;113074;-73
2021/12/31 00:29:05;;;;;;;16.00;6.50;;;;;;;2.20;80.03;98895.42;102952;1317;99352;-72
2021/12/31 00:31:32;;;;;;;15.70;6.10;;;;;;;2.21;79.99;98893.80;102883;1317;107750;-72
2021/12/31 00:34:01;;;;;;;13.00;6.10;;;;;;;2.23;80.10;98889.52;102894;1322;99212;-72
2021/12/31 00:36:58;;;;;;;16.30;6.40;;;;;;;2.24;79.90;98886.88;102970;1319;96599;-72
2021/12/31 00:39:27;;;;;;;12.30;5.40;;;;;;;2.25;79.93;98884.37;102906;1317;112868;-72
2021/12/31 00:41:59;;;;;;;12.80;5.60;;;;;;;2.28;79.98;98883.20;102884;1317;99335;-71
2021/12/31 00:44:27;;;;;;;11.20;5.20;;;;;;;2.31;79.81;98885.02;102898;1320;106776;-71
2021/12/31 00:46:55;;;;;;;13.10;5.50;;;;;;;2.34;79.90;98883.80;102992;1317;99215;-74
2021/12/31 00:49:22;;;;;;;11.20;4.60;;;;;;;2.35;79.83;98877.48;102937;1319;96786;-73
2021/12/31 00:51:50;;;;;;;9.20;4.30;;;;;;;2.35;80.03;98876.44;103006;1317;112834;-72
2021/12/31 00:54:18;;;;;;;9.10;4.30;;;;;;;2.37;80.09;98879.84;102998;1319;99590;-72
2021/12/31 00:56:46;;;;;;;9.10;3.90;;;;;;;2.36;79.99;98880.23;102911;1321;108945;-72
2021/12/31 00:59:17;;;;;;;7.00;3.30;;;;;;;2.38;80.07;98878.94;102911;1319;99343;-73
2021/12/31 01:01:44;;;;;;;9.40;3.60;;;;;;;2.39;80.32;98882.77;102971;1320;98787;-71
2021/12/31 01:04:17;;;;;;;5.30;2.50;;;;;;;2.38;80.14;98890.33;102892;1317;112862;-73
2021/12/31 01:06:45;;;;;;;8.20;3.70;;;;;;;2.37;80.11;98893.83;102963;1316;99691;-73
2021/12/31 01:09:15;;;;;;;5.80;2.90;;;;;;;2.39;80.07;98895.02;102947;1317;107887;-73
2021/12/31 01:11:47;;;;;;;4.70;2.50;;;;;;;2.39;80.02;98892.73;102886;1319;99191;-73
2021/12/31 01:17:09;;;;;;;5.00;2.80;;;;;;;2.40;79.94;98890.06;102933;1316;112654;-73
2021/12/31 01:19:45;;;;;;;5.10;2.90;;;;;;;2.42;80.13;98889.13;102961;1318;99269;-74
2021/12/31 01:22:30;;;;;;;6.10;2.80;;;;;;;2.41;80.13;98895.98;102924;1320;107523;-73
2021/12/31 01:25:04;;;;;;;3.20;2.20;;;;;;;2.42;80.06;98891.89;102929;1316;99313;-74
2021/12/31 01:27:35;;;;;;;4.50;2.70;;;;;;;2.44;79.88;98895.48;102960;1316;96686;-73
2021/12/31 01:30:08;;;;;;;4.80;2.80;;;;;;;2.46;80.04;98894.15;102999;1319;112773;-73
2021/12/31 01:32:36;;;;;;;4.40;2.90;;;;;;;2.47;80.01;98887.84;102899;1319;99111;-73
2021/12/31 01:35:06;;;;;;;4.80;2.40;;;;;;;2.46;80.13;98889.98;102926;1322;107886;-73
2021/12/31 01:37:34;;;;;;;6.40;3.00;;;;;;;2.46;80.11;98890.67;102890;1317;99262;-72
2021/12/31 01:40:04;;;;;;;3.30;2.50;;;;;;;2.45;80.18;98888.08;102973;1319;97358;-72
2021/12/31 01:42:33;;;;;;;4.20;2.50;;;;;;;2.47;79.90;98889.59;102955;1322;112882;-71
2021/12/31 01:45:10;;;;;;;3.60;2.30;;;;;;;2.49;80.27;98893.15;102956;1320;99227;-73
2021/12/31 01:50:37;;;;;;;7.20;2.70;;;;;;;2.53;80.25;98890.19;102813;1319;99346;-72
2021/12/31 01:53:05;;;;;;;6.00;3.00;;;;;;;2.57;80.63;98894.62;102921;1321;96625;-73
2021/12/31 01:55:36;;;;;;;3.90;2.50;;;;;;;2.60;80.12;98897.45;102927;1321;112933;-72
2021/12/31 01:58:05;;;;;;;2.30;1.80;;;;;;;2.61;80.30;98899.88;102962;1316;99151;-72
2021/12/31 02:00:36;;;;;;;3.20;2.10;;;;;;;2.63;80.31;98895.56;102946;1319;108366;-73
2021/12/31 02:03:06;;;;;;;5.30;2.30;;;;;;;2.63;79.92;98893.84;103005;1319;99407;-74
2021/12/31 02:05:34;;;;;;;3.10;2.40;;;;;;;2.65;80.18;98892.14;102945;1322;99260;-73
2021/12/31 02:08:05;;;;;;;4.20;2.00;;;;;;;2.67;80.26;98895.06;102976;1317;112738;-73
2021/12/31 02:10:33;;;;;;;4.70;2.50;;;;;;;2.68;80.31;98896.92;102945;1318;99288;-73
2021/12/31 02:13:01;;;;;;;4.50;2.40;;;;;;;2.70;80.16;98891.74;102879;1320;107495;-73
2021/12/31 02:15:30;;;;;;;3.90;2.20;;;;;;;2.72;80.13;98886.09;102931;1319;100386;-73
2021/12/31 02:18:01;;;;;;;2.10;1.90;;;;;;;2.74;80.24;98889.84;102977;1319;99318;-71
2021/12/31 02:20:41;;;;;;;3.30;2.00;;;;;;;2.76;80.38;98891.52;102943;1317;112742;-72
2021/12/31 02:23:19;;;;;;;2.00;1.80;;;;;;;2.76;79.97;98888.52;102986;1318;100299;-71
2021/12/31 02:25:47;;;;;;;3.80;2.00;;;;;;;2.78;80.28;98887.39;102923;1320;107992;-71
2021/12/31 02:28:18;;;;;;;3.20;2.00;;;;;;;2.80;80.33;98887.65;102999;1322;99994;-71
2021/12/31 02:31:00;;;;;;;3.30;2.00;;;;;;;2.81;80.55;98886.92;103009;1321;99326;-72
2021/12/31 02:33:31;;;;;;;2.90;1.90;;;;;;;2.82;80.24;98884.94;102943;1319;112830;-72
2021/12/31 02:36:03;;;;;;;3.10;1.70;;;;;;;2.84;80.36;98884.34;102960;1321;96628;-72
2021/12/31 02:38:31;;;;;;;2.90;1.90;;;;;;;2.87;80.33;98880.19;102896;1318;108019;-72
2021/12/31 02:40:59;;;;;;;3.40;2.00;;;;;;;2.89;80.47;98881.14;102932;1317;96650;-71
2021/12/31 02:43:27;;;;;;;2.80;1.90;;;;;;;2.90;80.54;98875.29;102964;1318;99282;-72
2021/12/31 02:45:54;;;;;;;3.50;2.20;;;;;;;2.92;80.28;98880.83;102952;1322;112749;-73
2021/12/31 02:48:25;;;;;;;2.90;1.80;;;;;;;2.93;80.67;98880.42;102950;1318;99259;-71
2021/12/31 02:50:58;;;;;;;2.80;2.00;;;;;;;2.94;80.48;98875.46;102862;1316;108874;-72
2021/12/31 02:53:33;;;;;;;1.90;1.60;;;;;;;2.96;80.40;98867.16;102719;1318;221988;-72
2021/12/31 02:56:06;;;;;;;2.70;1.80;;;;;;;2.97;80.61;98869.92;102726;1318;99401;-71
2021/12/31 02:58:36;;;;;;;5.10;1.70;;;;;;;2.99;80.56;98865.48;102925;1317;112848;-71
2021/12/31 03:01:07;;;;;;;2.40;1.80;;;;;;;3.00;80.65;98865.77;102929;1321;99213;-72
2021/12/31 03:03:36;;;;;;;3.60;1.80;;;;;;;3.01;80.53;98859.97;102891;1318;107943;-72
2021/12/31 03:06:07;;;;;;;3.80;1.80;;;;;;;3.03;80.45;98861.27;102863;1316;99360;-72
2021/12/31 03:08:43;;;;;;;2.30;1.70;;;;;;;3.04;80.78;98857.71;102975;1317;99216;-71
2021/12/31 03:11:14;;;;;;;5.40;2.10;;;;;;;3.05;80.72;98859.92;102968;1320;112877;-74
2021/12/31 03:14:19;;;;;;;4.60;1.90;;;;;;;3.11;80.47;98861.96;99854;1342;635953;-72
2021/12/31 03:16:50;;;;;;;4.20;1.90;;;;;;;3.10;80.49;98868.82;101375;1319;93808;-72
2021/12/31 03:19:20;;;;;;;4.10;1.80;;;;;;;3.10;80.52;98871.60;101488;1320;93887;-74
2021/12/31 03:21:50;;;;;;;2.90;1.70;;;;;;;3.10;80.46;98869.49;101412;1319;107276;-74
2021/12/31 03:24:17;;;;;;;4.00;1.80;;;;;;;3.12;80.45;98872.91;101527;1319;94198;-74
2021/12/31 03:26:45;;;;;;;4.10;1.40;;;;;;;3.14;80.47;98870.77;101385;1319;107852;-72
2021/12/31 03:29:13;;;;;;;2.50;1.60;;;;;;;3.16;80.25;98875.23;101519;1315;93966;-72
2021/12/31 03:31:41;;;;;;;3.30;1.40;;;;;;;3.17;80.30;98879.73;101514;1322;94235;-73
2021/12/31 03:34:10;;;;;;;3.50;1.70;;;;;;;3.19;80.49;98877.90;101575;1316;107241;-72
2021/12/31 03:36:43;;;;;;;6.10;2.30;;;;;;;3.21;80.36;98878.52;101973;1316;94176;-73
2021/12/31 03:39:13;;;;;;;3.10;1.50;;;;;;;3.22;80.48;98880.54;102046;1310;107728;-72
2021/12/31 03:41:41;;;;;;;4.70;2.20;;;;;;;3.24;80.60;98882.76;101918;1313;94315;-71
2021/12/31 03:44:08;;;;;;;5.10;1.80;;;;;;;3.24;80.36;98876.95;102066;1312;95259;-72
2021/12/31 03:46:36;;;;;;;2.30;1.20;;;;;;;3.26;80.56;98875.66;101987;1313;108732;-73
2021/12/31 03:49:04;;;;;;;5.00;1.60;;;;;;;3.29;80.37;98873.75;102007;1313;95129;-72
2021/12/31 03:51:32;;;;;;;3.60;1.60;;;;;;;3.32;80.69;98876.44;101993;1313;107734;-74
2021/12/31 03:54:00;;;;;;;1.80;1.30;;;;;;;3.33;80.52;98874.78;102058;1316;95240;-72
2021/12/31 03:56:31;;;;;;;2.20;1.20;;;;;;;3.35;80.59;98877.31;102140;1316;95211;-71
2021/12/31 03:59:01;;;;;;;1.80;1.10;;;;;;;3.36;80.63;98876.03;102143;1313;108691;-72
2021/12/31 04:01:29;;;;;;;2.20;1.10;;;;;;;3.38;80.52;98876.52;102041;1313;95198;-72
2021/12/31 04:03:59;;;;;;;2.70;1.90;;;;;;;3.40;80.59;98877.13;101987;1313;107730;-72
2021/12/31 04:06:27;;;;;;;2.30;1.40;;;;;;;3.41;80.98;98875.82;101987;1308;95197;-72
2021/12/31 04:08:58;;;;;;;3.30;1.40;;;;;;;3.43;80.91;98871.36;101988;1308;95173;-72
2021/12/31 04:11:25;;;;;;;2.50;1.20;;;;;;;3.42;80.52;98874.55;101973;1313;108840;-72
2021/12/31 04:13:53;;;;;;;1.40;1.30;;;;;;;3.43;80.79;98874.14;101987;1312;95214;-72
2021/12/31 04:16:21;;;;;;;2.20;1.10;;;;;;;3.43;80.74;98869.09;101979;1316;107884;-71
2021/12/31 04:18:49;;;;;;;2.50;1.50;;;;;;;3.43;80.83;98868.52;102066;1317;95294;-72
2021/12/31 04:21:19;;;;;;;3.10;1.20;;;;;;;3.46;80.73;98866.35;102007;1313;95176;-72
2021/12/31 04:24:04;;;;;;;2.40;1.30;;;;;;;3.46;80.95;98868.91;102077;1313;107592;-72
2021/12/31 04:26:36;;;;;;;2.50;1.50;;;;;;;3.45;80.63;98871.99;101917;1313;95159;-73
2021/12/31 04:29:03;;;;;;;1.90;1.00;;;;;;;3.44;80.86;98875.89;101951;1313;107533;-72
2021/12/31 04:31:31;;;;;;;2.10;1.10;;;;;;;3.43;80.94;98879.40;102007;1314;95112;-71
2021/12/31 04:34:04;;;;;;;1.10;0.80;;;;;;;3.43;80.66;98885.91;102119;1313;95153;-72
2021/12/31 04:36:33;;;;;;;1.60;0.80;;;;;;;3.44;80.79;98886.73;101986;1313;108621;-71
2021/12/31 04:39:02;;;;;;;1.90;0.90;;;;;;;3.45;80.86;98889.69;102006;1313;95451;-72
2021/12/31 04:41:30;;;;;;;1.30;0.90;;;;;;;3.43;80.98;98897.64;102075;1316;107842;-72
2021/12/31 04:43:58;;;;;;;2.30;1.50;;;;;;;3.42;80.87;98886.65;101979;1309;95108;-72
2021/12/31 04:46:26;;;;;;;1.90;1.00;;;;;;;3.43;80.92;98890.66;102054;1312;94248;-72
2021/12/31 04:48:53;;;;;;;2.00;1.10;;;;;;;3.42;80.81;98889.61;101909;1313;108748;-72
2021/12/31 04:51:21;;;;;;;1.10;0.60;;;;;;;3.43;80.89;98894.31;102057;1313;95155;-72
2021/12/31 04:53:49;;;;;;;0.90;0.80;;;;;;;3.43;80.98;98888.55;102006;1313;106579;-72
2021/12/31 04:56:17;;;;;;;1.50;0.80;;;;;;;3.43;81.28;98897.13;102024;1316;94316;-72
2021/12/31 04:58:47;;;;;;;1.20;0.90;;;;;;;3.43;81.05;98895.05;102125;1313;95111;-72
2021/12/31 05:01:16;;;;;;;1.80;0.70;;;;;;;3.42;81.23;98898.91;102016;1313;108778;-73
2021/12/31 05:03:46;;;;;;;4.00;1.00;;;;;;;3.42;81.31;98894.70;101982;1308;94194;-74
2021/12/31 05:06:15;;;;;;;1.30;1.00;;;;;;;3.42;80.93;98893.47;101906;1312;107733;-74
2021/12/31 05:08:44;;;;;;;2.30;1.20;;;;;;;3.43;81.19;98899.06;102058;1313;94262;-73
2021/12/31 05:11:12;;;;;;;3.10;1.10;;;;;;;3.43;81.17;98897.33;102045;1312;95038;-73
2021/12/31 05:13:40;;;;;;;1.20;1.00;;;;;;;3.45;81.34;98898.80;102087;1313;108710;-72
2021/12/31 05:16:08;;;;;;;2.90;1.00;;;;;;;3.45;81.14;98894.23;102000;1313;95208;-73
2021/12/31 05:18:36;;;;;;;1.00;1.00;;;;;;;3.46;81.17;98891.90;102005;1313;107749;-73
2021/12/31 05:21:04;;;;;;;1.10;0.90;;;;;;;3.49;81.20;98891.10;101943;1313;94221;-73
2021/12/31 05:23:31;;;;;;;1.20;0.90;;;;;;;3.50;81.06;98894.70;102060;1316;95201;-73
2021/12/31 05:26:02;;;;;;;3.30;1.10;;;;;;;3.52;81.17;98892.32;101995;1316;108662;-71
2021/12/31 05:28:32;;;;;;;2.90;1.50;;;;;;;3.53;81.12;98896.48;101954;1312;94220;-71
2021/12/31 05:31:00;;;;;;;3.00;2.20;;;;;;;3.56;81.37;98898.48;101998;1312;106747;-71
2021/12/31 05:33:30;;;;;;;5.30;3.40;;;;;;;3.56;81.30;98897.02;102031;1317;95364;-72
2021/12/31 05:36:00;;;;;;;7.10;3.10;;;;;;;3.58;81.12;98891.36;101981;1312;95187;-73
2021/12/31 05:38:29;;;;;;;8.00;2.90;;;;;;;3.58;81.07;98890.45;102013;1313;108659;-72
2021/12/31 05:40:58;;;;;;;6.70;2.60;;;;;;;3.60;81.18;98888.98;101993;1313;94184;-72
2021/12/31 05:43:28;;;;;;;5.80;2.10;;;;;;;3.60;81.20;98888.65;102036;1313;106943;-72
2021/12/31 05:45:56;;;;;;;5.80;2.30;;;;;;;3.58;81.20;98884.70;101930;1313;94230;-73
2021/12/31 05:48:26;;;;;;;7.40;2.40;;;;;;;3.57;81.10;98880.01;101950;1313;94291;-73
2021/12/31 05:50:53;;;;;;;6.00;2.30;;;;;;;3.57;81.12;98885.41;102010;1313;108724;-73
2021/12/31 05:53:21;;;;;;;8.20;3.00;;;;;;;3.56;81.28;98886.90;101994;1313;95217;-75
2021/12/31 05:55:51;;;;;;;7.60;2.20;;;;;;;3.56;81.19;98895.27;102091;1313;107703;-73
2021/12/31 05:58:18;;;;;;;11.00;3.00;;;;;;;3.55;81.19;98898.33;101907;1312;95076;-73
2021/12/31 06:00:48;;;;;;;8.10;2.40;;;;;;;3.54;81.11;98896.80;102063;1313;94313;-73
2021/12/31 06:03:16;;;;;;;8.10;2.30;;;;;;;3.54;81.17;98902.94;102007;1313;107661;-73
2021/12/31 06:05:48;;;;;;;4.40;1.90;;;;;;;3.53;81.10;98904.18;102043;1313;95151;-73
2021/12/31 06:08:16;;;;;;;4.90;2.30;;;;;;;3.55;81.25;98900.78;101986;1317;107837;-74
2021/12/31 06:10:44;;;;;;;4.70;2.20;;;;;;;3.55;81.36;98899.53;102112;1313;94297;-74
2021/12/31 06:13:12;;;;;;;5.50;2.30;;;;;;;3.55;81.27;98901.30;102015;1316;95163;-72
2021/12/31 06:15:42;;;;;;;5.20;2.30;;;;;;;3.56;81.31;98910.92;102005;1313;109887;-71
2021/12/31 06:18:11;;;;;;;3.90;2.40;;;;;;;3.58;81.08;98916.59;102088;1312;95163;-72
2021/12/31 06:20:44;;;;;;;5.30;2.40;;;;;;;3.58;81.33;98923.92;101920;1313;106254;-72
2021/12/31 06:23:12;;;;;;;7.60;3.00;;;;;;;3.60;81.42;98925.98;101838;1319;94303;-71
2021/12/31 06:25:40;;;;;;;7.30;2.80;;;;;;;3.62;81.15;98930.81;101902;1312;95121;-71
2021/12/31 06:28:10;;;;;;;5.00;2.70;;;;;;;3.63;81.23;98936.02;101914;1313;108521;-71
2021/12/31 06:30:38;;;;;;;7.10;2.70;;;;;;;3.61;81.12;98929.29;101897;1314;95142;-71
2021/12/31 06:33:06;;;;;;;5.60;2.10;;;;;;;3.61;81.28;98930.16;101909;1313;107689;-71
2021/12/31 06:35:34;;;;;;;5.50;2.60;;;;;;;3.62;81.34;98937.81;101872;1312;94189;-74
2021/12/31 06:38:03;;;;;;;6.10;2.60;;;;;;;3.63;81.42;98941.98;101965;1314;95133;-73
2021/12/31 06:40:31;;;;;;;5.10;2.40;;;;;;;3.65;81.19;98950.50;101932;1312;108709;-75
2021/12/31 06:43:00;;;;;;;5.10;2.40;;;;;;;3.67;81.23;98955.84;101915;1308;95181;-74
2021/12/31 06:45:29;;;;;;;6.50;2.60;;;;;;;3.68;81.27;98959.42;101945;1313;107861;-74
2021/12/31 06:47:58;;;;;;;7.70;3.00;;;;;;;3.71;81.29;98955.43;101907;1315;94318;-71
2021/12/31 06:50:29;;;;;;;8.50;3.20;;;;;;;3.73;81.29;98958.16;101901;1316;94304;-71
2021/12/31 06:52:57;;;;;;;6.40;3.00;;;;;;;3.73;81.30;98952.55;101915;1312;108966;-72
2021/12/31 06:55:25;;;;;;;7.00;2.80;;;;;;;3.73;81.32;98952.22;101911;1316;94251;-72
2021/12/31 06:57:53;;;;;;;6.50;2.60;;;;;;;3.72;81.18;98952.24;101906;1316;107754;-71
2021/12/31 07:00:21;;;;;;;5.50;2.40;;;;;;;3.73;81.17;98949.05;101878;1316;94241;-71
2021/12/31 07:02:49;;;;;;;3.90;2.00;;;;;;;3.73;81.40;98945.00;101937;1316;94308;-70
2021/12/31 07:05:18;;;;;;;4.40;1.80;;;;;;;3.73;81.34;98945.70;101819;1313;108037;-71
2021/12/31 07:07:46;;;;;;;4.90;2.20;;;;;;;3.74;81.12;98944.78;101859;1316;95301;-72
2021/12/31 07:10:14;;;;;;;3.40;1.90;;;;;;;3.74;81.33;98944.63;101863;1312;107938;-72
2021/12/31 07:12:41;;;;;;;1.70;1.20;;;;;;;3.75;81.30;98944.91;101871;1313;95281;-74
2021/12/31 07:15:09;;;;;;;2.00;1.40;;;;;;;3.77;81.43;98947.63;102138;1317;95425;-73
2021/12/31 07:17:37;;;;;;;1.90;1.10;;;;;;;3.76;81.33;98943.47;102159;1310;108664;-72
2021/12/31 07:20:06;;;;;;;1.80;1.40;;;;;;;3.75;81.51;98938.61;102162;1309;95216;-72
2021/12/31 07:22:34;;;;;;;2.20;1.40;;;;;;;3.75;81.51;98934.57;102162;1310;107750;-73
2021/12/31 07:25:04;;;;;;;2.30;1.20;;;;;;;3.76;81.55;98942.59;102083;1309;96488;-71
2021/12/31 07:27:32;;;;;;;1.70;1.20;;;;;;;3.76;81.47;98954.52;102142;1310;96494;-72
2021/12/31 07:30:03;;;;;;;1.70;1.30;;;;;;;3.77;81.27;98962.04;102161;1310;109833;-71
2021/12/31 07:32:37;;;;;;;3.40;1.50;;;;;;;3.77;81.37;98967.48;102133;1311;94984;-73
2021/12/31 07:35:05;;;;;;;2.00;1.20;;;;;;;3.76;81.30;98965.23;102231;1310;106446;-74
2021/12/31 07:37:33;;;;;;;1.40;1.20;;;;;;;3.77;81.40;98966.63;102191;1305;96432;-74
2021/12/31 07:40:04;;;;;;;2.50;1.30;;;;;;;3.77;81.37;98966.09;102182;1309;96539;-74
2021/12/31 07:42:33;;;;;;;3.90;1.80;;;;;;;3.76;81.35;98964.35;102231;1309;108992;-73
2021/12/31 07:45:02;;;;;;;22.20;10.70;;;;;;;3.76;81.27;98966.29;102205;1306;94230;-76
2021/12/31 07:47:30;;;;;;;6.50;2.80;;;;;;;3.76;81.41;98960.16;102153;1310;107264;-73
2021/12/31 07:49:59;;;;;;;5.00;2.40;;;;;;;3.76;81.32;98965.43;102131;1310;96534;-74
2021/12/31 07:52:27;;;;;;;5.90;2.80;;;;;;;3.76;81.27;98967.85;102209;1310;96436;-73
2021/12/31 07:54:55;;;;;;;3.50;2.20;;;;;;;3.78;81.52;98972.32;102263;1309;111039;-74
2021/12/31 07:57:23;;;;;;;4.60;2.20;;;;;;;3.79;81.34;98965.44;102226;1310;94248;-74
2021/12/31 07:59:51;;;;;;;5.60;2.60;;;;;;;3.80;81.45;98964.50;102160;1309;108186;-72
2021/12/31 08:02:18;;;;;;;6.70;2.70;;;;;;;3.81;81.52;98963.61;102163;1309;96585;-72
2021/12/31 08:04:51;;;;;;;6.80;2.90;;;;;;;3.79;81.49;98962.64;102208;1310;94352;-73
2021/12/31 08:07:19;;;;;;;4.60;2.30;;;;;;;3.80;81.53;98969.77;102231;1316;110617;-74
2021/12/31 08:09:52;;;;;;;3.20;1.90;;;;;;;3.84;81.48;98965.91;102242;1312;94323;-72
2021/12/31 08:12:40;;;;;;;4.20;2.10;;;;;;;3.86;81.49;98969.52;102263;1309;107847;-72
2021/12/31 08:15:10;;;;;;;3.90;1.80;;;;;;;3.87;81.49;98970.50;102257;1309;96564;-71
2021/12/31 08:17:41;;;;;;;5.10;2.10;;;;;;;3.89;81.24;98968.15;102260;1309;96546;-72
2021/12/31 08:20:10;;;;;;;8.90;3.70;;;;;;;3.92;81.48;98967.64;102209;1310;110039;-71
2021/12/31 08:22:38;;;;;;;3.70;1.70;;;;;;;3.93;81.28;98965.35;102276;1310;96362;-71
2021/12/31 08:25:06;;;;;;;2.60;1.70;;;;;;;3.91;81.42;98964.02;102291;1309;107639;-71
2021/12/31 08:27:42;;;;;;;6.20;1.90;;;;;;;3.92;81.47;98962.76;102367;1306;96535;-71
2021/12/31 08:30:12;;;;;;;2.80;1.90;;;;;;;3.93;81.39;98961.46;102354;1313;96638;-71
2021/12/31 08:32:41;;;;;;;3.80;1.60;;;;;;;3.96;81.62;98961.50;102274;1310;111219;-73
2021/12/31 08:35:09;;;;;;;3.40;1.80;;;;;;;3.98;81.46;98956.85;102247;1310;95427;-72
2021/12/31 08:37:36;;;;;;;3.40;1.70;;;;;;;4.01;81.53;98954.60;102312;1310;107737;-73
2021/12/31 08:40:06;;;;;;;4.20;1.90;;;;;;;4.01;81.55;98951.79;102279;1310;96587;-71
2021/12/31 08:42:34;;;;;;;4.40;1.90;;;;;;;4.03;81.48;98952.95;102100;1312;96578;-75
2021/12/31 08:45:02;;;;;;;4.80;2.10;;;;;;;4.04;81.57;98956.02;102127;1309;109541;-77
2021/12/31 08:47:32;;;;;;;3.30;1.80;;;;;;;4.06;81.66;98960.15;102102;1310;94863;-76
2021/12/31 08:50:03;;;;;;;3.90;2.20;;;;;;;4.07;81.61;98959.23;102195;1309;107934;-76
2021/12/31 08:52:31;;;;;;;4.80;2.50;;;;;;;4.04;81.46;98959.36;102146;1315;96522;-74
2021/12/31 08:54:59;;;;;;;3.40;1.90;;;;;;;4.04;81.39;98957.95;102099;1310;95078;-74
2021/12/31 08:57:27;;;;;;;4.00;1.80;;;;;;;4.07;81.66;98965.05;102064;1310;111814;-74
2021/12/31 08:59:54;;;;;;;3.90;2.00;;;;;;;4.08;81.42;98964.80;102115;1312;96433;-74
2021/12/31 09:02:22;;;;;;;4.60;2.10;;;;;;;4.08;81.51;98963.20;102158;1309;107868;-74
2021/12/31 09:04:50;;;;;;;4.70;2.30;;;;;;;4.08;81.50;98964.61;102145;1313;96745;-75
2021/12/31 09:07:18;;;;;;;8.70;2.60;;;;;;;4.09;81.56;98962.10;102168;1309;96620;-72
2021/12/31 09:09:46;;;;;;;8.90;3.10;;;;;;;4.11;81.59;98957.64;102030;1309;111727;-75
2021/12/31 09:12:14;;;;;;;4.70;2.50;;;;;;;4.12;81.53;98958.96;102109;1309;96594;-75
2021/12/31 09:14:42;;;;;;;5.80;2.60;;;;;;;4.14;81.51;98955.18;102098;1309;107684;-75
2021/12/31 09:17:10;;;;;;;6.30;2.60;;;;;;;4.15;81.51;98954.12;102082;1309;96595;-73
2021/12/31 09:19:37;;;;;;;5.20;2.60;;;;;;;4.16;81.52;98956.70;102178;1309;96561;-74
2021/12/31 09:22:06;;;;;;;6.50;3.00;;;;;;;4.18;81.54;98959.77;102010;1313;109845;-75
2021/12/31 09:24:37;;;;;;;7.90;3.20;;;;;;;4.20;81.50;98956.70;102053;1309;96655;-74
2021/12/31 09:27:04;;;;;;;9.80;3.70;;;;;;;4.20;81.47;98956.31;101938;1313;107872;-75
2021/12/31 09:29:33;;;;;;;7.60;2.90;;;;;;;4.22;81.60;98962.38;102063;1309;96512;-73
2021/12/31 09:32:01;;;;;;;8.20;3.40;;;;;;;4.27;81.63;98958.30;102130;1312;96553;-75
2021/12/31 09:34:29;;;;;;;7.50;3.00;;;;;;;4.28;81.64;98955.80;102221;1310;109052;-73
2021/12/31 09:36:57;;;;;;;5.80;2.70;;;;;;;4.29;81.51;98956.79;102208;1309;96709;-73
2021/12/31 09:39:25;;;;;;;6.50;3.10;;;;;;;4.29;81.57;98953.77;102202;1309;107692;-73
2021/12/31 09:41:53;;;;;;;7.50;2.80;;;;;;;4.31;81.52;98953.52;102165;1313;96452;-72
2021/12/31 09:44:21;;;;;;;6.00;3.00;;;;;;;4.31;81.58;98953.16;102260;1311;96504;-73
2021/12/31 09:46:50;;;;;;;9.00;3.00;;;;;;;4.30;81.47;98947.23;102208;1311;110029;-74
2021/12/31 09:49:18;;;;;;;6.50;2.60;;;;;;;4.30;81.57;98945.10;102100;1313;96603;-74
2021/12/31 09:51:45;;;;;;;5.00;3.10;;;;;;;4.30;81.53;98947.75;102034;1310;107820;-72
2021/12/31 09:54:17;;;;;;;8.90;3.50;;;;;;;4.30;81.45;98946.71;102056;1314;96507;-71
2021/12/31 09:56:45;;;;;;;12.80;3.90;;;;;;;4.31;81.75;98947.69;102018;1309;96549;-74
2021/12/31 09:59:13;;;;;;;12.80;4.30;;;;;;;4.33;81.73;98946.93;102124;1312;110164;-72
2021/12/31 10:01:49;;;;;;;13.90;4.10;;;;;;;4.35;81.71;98940.19;102052;1313;94877;-74
2021/12/31 10:04:20;;;;;;;13.40;5.00;;;;;;;4.36;81.68;98946.06;102053;1313;107780;-73
2021/12/31 10:07:08;;;;;;;15.50;5.60;;;;;;;4.37;81.73;98942.54;102011;1312;96681;-74
2021/12/31 10:09:40;;;;;;;13.80;5.30;;;;;;;4.38;81.77;98942.64;102080;1310;96763;-73
2021/12/31 10:12:13;;;;;;;13.40;4.90;;;;;;;4.39;81.74;98942.95;102031;1312;110150;-74
2021/12/31 10:14:41;;;;;;;13.70;4.70;;;;;;;4.40;81.66;98940.78;101977;1309;94198;-77
2021/12/31 10:17:09;;;;;;;11.60;4.90;;;;;;;4.41;81.66;98944.45;102120;1305;106371;-71
2021/12/31 10:19:55;;;;;;;12.70;4.90;;;;;;;4.41;81.60;98946.04;102198;1309;97242;-72
2021/12/31 10:22:22;;;;;;;11.80;4.10;;;;;;;4.42;81.74;98946.15;102443;1316;96529;-73
2021/12/31 10:24:51;;;;;;;8.80;4.00;;;;;;;4.43;81.76;98943.80;102185;1312;110028;-71
2021/12/31 10:27:20;;;;;;;11.10;3.90;;;;;;;4.44;81.77;98939.36;102218;1312;96504;-74
2021/12/31 10:29:59;;;;;;;11.80;4.50;;;;;;;4.45;81.81;98942.65;102244;1312;107794;-72
2021/12/31 10:32:32;;;;;;;12.50;4.80;;;;;;;4.46;81.77;98940.82;102846;1322;94457;-73
2021/12/31 10:35:19;;;;;;;12.20;4.20;;;;;;;4.49;81.91;98935.23;102866;1317;94206;-73
2021/12/31 10:37:57;;;;;;;11.70;4.20;;;;;;;4.51;81.82;98932.15;102843;1317;110028;-72
2021/12/31 10:40:32;;;;;;;11.40;4.40;;;;;;;4.55;81.88;98928.27;102387;1313;96491;-73
2021/12/31 10:43:23;;;;;;;13.40;4.40;;;;;;;4.59;81.86;98928.61;102185;1316;109748;-73
2021/12/31 10:46:01;;;;;;;13.80;4.90;;;;;;;4.62;81.90;98930.75;102147;1313;96519;-73
2021/12/31 10:48:50;;;;;;;13.10;5.10;;;;;;;4.65;81.95;98932.73;102177;1309;95135;-72
2021/12/31 10:51:35;;;;;;;15.00;5.50;;;;;;;4.67;82.02;98934.22;102253;1312;108945;-70
2021/12/31 10:54:48;;;;;;;14.40;5.00;;;;;;;4.70;82.08;98934.75;102213;1312;96552;-74
2021/12/31 10:57:36;;;;;;;;;;;;;;;4.73;82.02;98930.92;102261;1309;107762;-74
2021/12/31 11:00:08;;;;;;;17.30;5.50;;;;;;;4.73;82.10;98927.20;102258;1313;95502;-75
2021/12/31 11:02:42;;;;;;;15.80;5.90;;;;;;;4.75;82.12;98920.43;102236;1309;96494;-74
2021/12/31 11:05:14;;;;;;;16.20;5.40;;;;;;;4.78;82.04;98922.75;102190;1313;110175;-72
2021/12/31 11:07:42;;;;;;;15.60;5.70;;;;;;;4.80;82.06;98920.55;102262;1305;96514;-76
2021/12/31 11:10:39;;;;;;;13.90;4.80;;;;;;;4.82;82.06;98918.84;102068;1312;107760;-72
2021/12/31 11:13:20;;;;;;;12.50;4.20;;;;;;;4.87;82.15;98917.38;102206;1312;97381;-72
2021/12/31 11:15:53;;;;;;;14.30;4.70;;;;;;;4.91;82.22;98908.39;102264;1313;94963;-73
2021/12/31 11:18:26;;;;;;;13.00;4.60;;;;;;;4.92;82.19;98916.73;102176;1312;110106;-74
2021/12/31 11:21:01;;;;;;;13.50;4.80;;;;;;;4.96;82.16;98917.42;102291;1306;96451;-71
2021/12/31 11:23:31;;;;;;;9.20;4.10;;;;;;;4.98;82.36;98914.49;102174;1310;108571;-72
2021/12/31 11:26:05;;;;;;;10.20;4.40;;;;;;;5.02;82.27;98914.52;102118;1312;94561;-70
2021/12/31 11:28:37;;;;;;;9.70;3.70;;;;;;;5.04;82.28;98909.98;102067;1309;96505;-74
2021/12/31 11:31:20;;;;;;;10.60;4.40;;;;;;;5.08;82.32;98910.00;102160;1312;110123;-74
2021/12/31 11:33:56;;;;;;;12.80;4.40;;;;;;;5.12;82.39;98905.00;102201;1313;96098;-75
2021/12/31 11:36:54;;;;;;;12.80;4.50;;;;;;;5.17;82.40;98901.23;102546;1308;107873;-77
2021/12/31 11:39:22;;;;;;;11.80;4.90;;;;;;;5.23;82.31;98900.05;102213;1313;94548;-75
2021/12/31 11:41:53;;;;;;;10.30;4.20;;;;;;;5.27;82.38;98898.61;102193;1309;94183;-73
2021/12/31 11:44:24;;;;;;;10.30;4.50;;;;;;;5.32;82.39;98899.73;102172;1309;108923;-75
2021/12/31 11:47:14;;;;;;;12.60;4.40;;;;;;;5.37;82.40;98902.12;102147;1307;95193;-75
2021/12/31 11:49:45;;;;;;;7.10;4.10;;;;;;;5.42;82.31;98897.98;102146;1312;106570;-72
2021/12/31 11:52:24;;;;;;;9.80;4.40;;;;;;;5.47;82.30;98890.15;102860;1318;94310;-73